createdAt,value
2022-08-22T00:07:10.200Z,12.48
2022-08-22T00:16:47.295Z,12.28
2022-08-22T00:26:24.679Z,12.11
2022-08-22T00:36:01.598Z,11.96
2022-08-22T00:45:38.735Z,11.84
2022-08-22T00:55:15.535Z,11.92
2022-08-22T01:04:52.780Z,11.86
2022-08-22T01:14:34.464Z,11.81
2022-08-22T01:24:07.084Z,11.68
2022-08-22T01:33:43.887Z,11.61
2022-08-22T01:43:20.945Z,11.6
2022-08-22T01:52:57.903Z,11.52
2022-08-22T02:02:34.376Z,11.39
2022-08-22T02:12:13.808Z,11.25
2022-08-22T02:21:48.520Z,11.07
2022-08-22T02:31:24.998Z,11.01
2022-08-22T02:41:01.561Z,10.87
2022-08-22T02:50:38.261Z,10.65
2022-08-22T03:00:25.065Z,10.62
2022-08-22T03:09:51.968Z,10.6
2022-08-22T03:19:28.796Z,10.61
2022-08-22T03:29:05.840Z,10.73
2022-08-22T03:38:43.046Z,10.63
2022-08-22T03:48:19.990Z,10.42
2022-08-22T03:57:57.009Z,10.25
2022-08-22T04:07:33.780Z,10.29
2022-08-22T04:17:10.862Z,10.43
2022-08-22T04:26:48.252Z,10.74
2022-08-22T04:36:25.523Z,10.62
2022-08-22T04:46:02.631Z,10.85
2022-08-22T04:55:39.915Z,10.99
2022-08-22T05:05:17.549Z,11.24
2022-08-22T05:14:55.231Z,11.23
2022-08-22T05:24:32.180Z,11.29
2022-08-22T05:34:09.930Z,11.73
2022-08-22T05:43:49.751Z,12.13
2022-08-22T05:53:25.398Z,12.6
2022-08-22T06:03:03.105Z,13.05
2022-08-22T06:12:43.128Z,13.33
2022-08-22T06:22:18.873Z,13.67
2022-08-22T06:31:56.530Z,13.92
2022-08-22T06:41:34.587Z,14.27
2022-08-22T06:51:12.163Z,14.82
2022-08-22T07:00:51.581Z,15.28
2022-08-22T07:10:28.087Z,15.69
2022-08-22T07:20:06.149Z,16.13
2022-08-22T07:29:44.851Z,16.72
2022-08-22T07:39:22.780Z,17.28
2022-08-22T07:49:08.971Z,17.54
2022-08-22T07:58:38.066Z,17.78
2022-08-22T08:08:15.952Z,18.42
2022-08-22T08:17:54.319Z,18.91
2022-08-22T08:27:32.825Z,19.44
2022-08-22T08:37:12.707Z,20.35
2022-08-22T08:46:50.216Z,20.94
2022-08-22T08:56:28.261Z,21.06
2022-08-22T09:06:07.519Z,21.75
2022-08-22T09:15:54.890Z,22.5
2022-08-22T09:25:27.895Z,23.02
2022-08-22T09:35:06.194Z,23.24
2022-08-22T09:44:45.205Z,23.42
2022-08-22T09:54:31.323Z,25.24
2022-08-22T10:04:19.407Z,25.81
2022-08-22T10:14:04.366Z,27.41
2022-08-22T10:23:49.576Z,28.17
2022-08-22T10:33:33.138Z,29.25
2022-08-22T10:43:16.347Z,29.2
2022-08-22T10:52:31.971Z,28.18
2022-08-22T11:02:30.718Z,30.57
2022-08-22T11:12:11.829Z,30.07
2022-08-22T11:21:48.763Z,30.98
2022-08-22T11:31:31.697Z,29.79
2022-08-22T11:41:03.707Z,28.13
2022-08-22T11:50:42.156Z,29.75
2022-08-22T12:00:16.230Z,30.22
2022-08-22T12:09:58.967Z,30.25
2022-08-22T12:19:18.312Z,27.25
2022-08-22T12:29:01.070Z,28.91
2022-08-22T12:38:39.505Z,26.67
2022-08-22T12:48:22.775Z,28.39
2022-08-22T12:58:01.280Z,28.11
2022-08-22T13:07:44.786Z,27.84
2022-08-22T13:17:23.959Z,29.35
2022-08-22T13:26:51.569Z,27.89
2022-08-22T13:36:21.921Z,28.15
2022-08-22T13:46:01.810Z,27.9
2022-08-22T13:55:37.349Z,27.86
2022-08-22T14:05:15.358Z,27.05
2022-08-22T14:14:52.870Z,27.77
2022-08-22T14:24:45.511Z,29.12
2022-08-22T14:34:29.571Z,30.61
2022-08-22T14:44:08.808Z,30.91
2022-08-22T14:53:37.408Z,29.76
2022-08-22T15:03:05.472Z,27.73
2022-08-22T15:12:34.485Z,26.79
2022-08-22T15:22:09.685Z,26.38
2022-08-22T15:31:46.421Z,26.15
2022-08-22T15:41:22.768Z,26.26
2022-08-22T15:50:57.608Z,25.56
2022-08-22T16:00:33.988Z,25.36
2022-08-22T16:10:11.859Z,25.34
2022-08-22T16:19:49.119Z,25.42
2022-08-22T16:29:26.178Z,25.04
2022-08-22T16:39:02.873Z,25.1
2022-08-22T16:48:39.062Z,24.7
2022-08-22T16:58:15.798Z,24.23
2022-08-22T17:07:52.437Z,23.95
2022-08-22T17:17:28.999Z,23.49
2022-08-22T17:27:06.124Z,23.08
2022-08-22T17:36:42.646Z,22.66
2022-08-22T17:46:18.833Z,22.24
2022-08-22T17:55:55.484Z,21.9
2022-08-22T18:05:32.260Z,21.39
2022-08-22T18:15:08.776Z,21.08
2022-08-22T18:24:45.519Z,20.67
2022-08-22T18:34:22.082Z,20.12
2022-08-22T18:43:58.334Z,19.69
2022-08-22T18:53:34.706Z,19.24
2022-08-22T19:03:11.286Z,18.87
2022-08-22T19:12:48.213Z,18.46
2022-08-22T19:22:24.899Z,18.14
2022-08-22T19:32:01.628Z,17.99
2022-08-22T19:41:38.227Z,17.57
2022-08-22T19:51:14.728Z,17.36
2022-08-22T20:00:53.437Z,17
2022-08-22T20:10:28.919Z,16.9
2022-08-22T20:20:22.802Z,16.68
2022-08-22T20:29:42.843Z,16.53
2022-08-22T20:39:20.189Z,16.51
2022-08-22T20:48:57.209Z,16.18
2022-08-22T20:58:34.341Z,16.04
2022-08-22T21:08:11.138Z,15.74
2022-08-22T21:17:48.183Z,15.69
2022-08-22T21:27:25.435Z,15.45
2022-08-22T21:37:02.267Z,15.35
2022-08-22T21:46:39.631Z,15.3
2022-08-22T21:56:16.568Z,15.08
2022-08-22T22:05:53.425Z,14.87
2022-08-22T22:15:30.370Z,14.68
2022-08-22T22:25:39.335Z,14.77
2022-08-22T22:34:44.438Z,14.58
2022-08-22T22:44:21.627Z,14.47
2022-08-22T22:53:58.572Z,14.44
2022-08-22T23:03:35.791Z,14.26
2022-08-22T23:13:12.666Z,14.09
2022-08-22T23:22:49.816Z,13.89
2022-08-22T23:32:26.810Z,13.7
2022-08-22T23:42:03.676Z,13.37
2022-08-22T23:51:40.653Z,13.1
